sensor_id;sensor_type;location;lat;lon;timestamp;P1;durP1;ratioP1;P2;durP2;ratioP2
6344;SDS011;3205;42.666;23.264;2023-02-18T00:00:07;43.70;;;18.73;;
6344;SDS011;3205;42.666;23.264;2023-02-18T00:02:38;49.67;;;18.20;;
6344;SDS011;3205;42.666;23.264;2023-02-18T00:05:06;44.10;;;16.47;;
6344;SDS011;3205;42.666;23.264;2023-02-18T00:07:33;43.27;;;17.73;;
6344;SDS011;3205;42.666;23.264;2023-02-18T00:10:01;42.93;;;18.13;;
6344;SDS011;3205;42.666;23.264;2023-02-18T00:12:27;48.33;;;17.50;;
6344;SDS011;3205;42.666;23.264;2023-02-18T00:14:55;38.40;;;17.03;;
6344;SDS011;3205;42.666;23.264;2023-02-18T00:17:22;41.67;;;17.50;;
6344;SDS011;3205;42.666;23.264;2023-02-18T00:19:49;43.40;;;17.40;;
6344;SDS011;3205;42.666;23.264;2023-02-18T00:22:15;40.63;;;17.07;;
6344;SDS011;3205;42.666;23.264;2023-02-18T00:24:41;47.30;;;17.77;;
6344;SDS011;3205;42.666;23.264;2023-02-18T00:27:07;35.87;;;16.73;;
6344;SDS011;3205;42.666;23.264;2023-02-18T00:29:34;39.93;;;18.40;;
6344;SDS011;3205;42.666;23.264;2023-02-18T00:32:00;42.67;;;18.27;;
6344;SDS011;3205;42.666;23.264;2023-02-18T00:34:26;35.73;;;15.27;;
6344;SDS011;3205;42.666;23.264;2023-02-18T00:36:53;52.67;;;18.17;;
6344;SDS011;3205;42.666;23.264;2023-02-18T00:39:20;51.10;;;16.97;;
6344;SDS011;3205;42.666;23.264;2023-02-18T00:41:46;36.63;;;16.00;;
6344;SDS011;3205;42.666;23.264;2023-02-18T00:44:13;38.67;;;15.70;;
6344;SDS011;3205;42.666;23.264;2023-02-18T00:46:39;42.43;;;16.10;;
6344;SDS011;3205;42.666;23.264;2023-02-18T00:49:05;41.70;;;16.10;;
6344;SDS011;3205;42.666;23.264;2023-02-18T00:51:32;35.20;;;16.13;;
6344;SDS011;3205;42.666;23.264;2023-02-18T00:54:00;33.73;;;15.43;;
6344;SDS011;3205;42.666;23.264;2023-02-18T00:56:26;29.00;;;14.20;;
6344;SDS011;3205;42.666;23.264;2023-02-18T00:58:53;32.93;;;13.43;;
6344;SDS011;3205;42.666;23.264;2023-02-18T01:01:19;39.90;;;15.50;;
6344;SDS011;3205;42.666;23.264;2023-02-18T01:03:47;35.33;;;16.27;;
6344;SDS011;3205;42.666;23.264;2023-02-18T01:06:13;38.07;;;15.30;;
6344;SDS011;3205;42.666;23.264;2023-02-18T01:08:39;40.27;;;15.30;;
6344;SDS011;3205;42.666;23.264;2023-02-18T01:11:07;40.47;;;15.43;;
6344;SDS011;3205;42.666;23.264;2023-02-18T01:13:37;33.40;;;14.20;;
6344;SDS011;3205;42.666;23.264;2023-02-18T01:16:05;37.13;;;15.27;;
6344;SDS011;3205;42.666;23.264;2023-02-18T01:18:32;41.33;;;15.10;;
6344;SDS011;3205;42.666;23.264;2023-02-18T01:20:58;33.77;;;12.57;;
6344;SDS011;3205;42.666;23.264;2023-02-18T01:23:25;27.60;;;11.70;;
6344;SDS011;3205;42.666;23.264;2023-02-18T01:25:51;29.53;;;12.13;;
6344;SDS011;3205;42.666;23.264;2023-02-18T01:28:19;40.60;;;12.70;;
6344;SDS011;3205;42.666;23.264;2023-02-18T01:30:49;31.77;;;12.63;;
6344;SDS011;3205;42.666;23.264;2023-02-18T01:33:16;37.00;;;12.90;;
6344;SDS011;3205;42.666;23.264;2023-02-18T01:35:42;24.63;;;11.40;;
6344;SDS011;3205;42.666;23.264;2023-02-18T01:38:10;30.33;;;12.27;;
6344;SDS011;3205;42.666;23.264;2023-02-18T01:40:42;32.90;;;13.30;;
6344;SDS011;3205;42.666;23.264;2023-02-18T01:43:11;34.00;;;13.57;;
6344;SDS011;3205;42.666;23.264;2023-02-18T01:45:54;27.67;;;13.23;;
6344;SDS011;3205;42.666;23.264;2023-02-18T01:48:24;37.20;;;14.30;;
6344;SDS011;3205;42.666;23.264;2023-02-18T01:50:56;35.50;;;14.83;;
6344;SDS011;3205;42.666;23.264;2023-02-18T01:53:28;33.23;;;14.17;;
6344;SDS011;3205;42.666;23.264;2023-02-18T01:55:57;33.03;;;14.70;;
6344;SDS011;3205;42.666;23.264;2023-02-18T01:58:28;32.63;;;14.03;;
6344;SDS011;3205;42.666;23.264;2023-02-18T02:00:55;40.43;;;15.33;;
6344;SDS011;3205;42.666;23.264;2023-02-18T02:03:21;32.70;;;14.67;;
6344;SDS011;3205;42.666;23.264;2023-02-18T02:05:47;36.00;;;13.83;;
6344;SDS011;3205;42.666;23.264;2023-02-18T02:08:13;33.03;;;13.90;;
6344;SDS011;3205;42.666;23.264;2023-02-18T02:10:46;36.53;;;15.57;;
6344;SDS011;3205;42.666;23.264;2023-02-18T02:13:27;33.37;;;14.97;;
6344;SDS011;3205;42.666;23.264;2023-02-18T02:16:02;32.20;;;14.33;;
6344;SDS011;3205;42.666;23.264;2023-02-18T02:18:40;35.77;;;14.63;;
6344;SDS011;3205;42.666;23.264;2023-02-18T02:21:25;37.80;;;13.90;;
6344;SDS011;3205;42.666;23.264;2023-02-18T02:27:20;29.37;;;13.73;;
6344;SDS011;3205;42.666;23.264;2023-02-18T02:30:00;36.67;;;13.53;;
6344;SDS011;3205;42.666;23.264;2023-02-18T02:33:01;31.53;;;14.63;;
6344;SDS011;3205;42.666;23.264;2023-02-18T02:35:45;29.30;;;14.07;;
6344;SDS011;3205;42.666;23.264;2023-02-18T02:38:21;26.40;;;13.30;;
6344;SDS011;3205;42.666;23.264;2023-02-18T02:40:56;27.63;;;12.93;;
6344;SDS011;3205;42.666;23.264;2023-02-18T02:43:32;26.60;;;13.30;;
6344;SDS011;3205;42.666;23.264;2023-02-18T02:46:08;29.90;;;12.97;;
6344;SDS011;3205;42.666;23.264;2023-02-18T02:48:44;37.30;;;12.90;;
6344;SDS011;3205;42.666;23.264;2023-02-18T02:51:15;25.63;;;12.50;;
6344;SDS011;3205;42.666;23.264;2023-02-18T02:53:48;31.73;;;12.53;;
6344;SDS011;3205;42.666;23.264;2023-02-18T02:56:15;32.03;;;13.77;;
6344;SDS011;3205;42.666;23.264;2023-02-18T02:58:42;30.67;;;14.07;;
6344;SDS011;3205;42.666;23.264;2023-02-18T03:01:18;30.37;;;13.77;;
6344;SDS011;3205;42.666;23.264;2023-02-18T03:06:58;34.60;;;13.67;;
6344;SDS011;3205;42.666;23.264;2023-02-18T03:09:49;32.27;;;14.07;;
6344;SDS011;3205;42.666;23.264;2023-02-18T03:12:35;35.47;;;13.87;;
6344;SDS011;3205;42.666;23.264;2023-02-18T03:15:13;41.50;;;15.13;;
6344;SDS011;3205;42.666;23.264;2023-02-18T03:17:51;35.80;;;13.03;;
6344;SDS011;3205;42.666;23.264;2023-02-18T03:20:25;35.27;;;15.67;;
6344;SDS011;3205;42.666;23.264;2023-02-18T03:22:59;36.50;;;16.23;;
6344;SDS011;3205;42.666;23.264;2023-02-18T03:25:29;35.83;;;15.63;;
6344;SDS011;3205;42.666;23.264;2023-02-18T03:27:59;42.73;;;17.80;;
6344;SDS011;3205;42.666;23.264;2023-02-18T03:30:31;34.13;;;15.50;;
6344;SDS011;3205;42.666;23.264;2023-02-18T03:33:01;41.77;;;16.47;;
6344;SDS011;3205;42.666;23.264;2023-02-18T03:35:29;35.37;;;15.30;;
6344;SDS011;3205;42.666;23.264;2023-02-18T03:37:56;35.13;;;15.03;;
6344;SDS011;3205;42.666;23.264;2023-02-18T03:40:27;30.57;;;14.07;;
6344;SDS011;3205;42.666;23.264;2023-02-18T03:42:55;28.50;;;14.27;;
6344;SDS011;3205;42.666;23.264;2023-02-18T03:45:21;31.17;;;15.37;;
6344;SDS011;3205;42.666;23.264;2023-02-18T03:47:49;33.80;;;15.07;;
6344;SDS011;3205;42.666;23.264;2023-02-18T03:50:15;34.00;;;14.60;;
6344;SDS011;3205;42.666;23.264;2023-02-18T03:52:41;31.20;;;14.30;;
6344;SDS011;3205;42.666;23.264;2023-02-18T03:55:08;37.10;;;14.73;;
6344;SDS011;3205;42.666;23.264;2023-02-18T03:57:35;27.60;;;14.20;;
6344;SDS011;3205;42.666;23.264;2023-02-18T04:00:03;31.03;;;14.73;;
6344;SDS011;3205;42.666;23.264;2023-02-18T04:02:32;36.97;;;15.33;;
6344;SDS011;3205;42.666;23.264;2023-02-18T04:04:58;35.43;;;13.53;;
6344;SDS011;3205;42.666;23.264;2023-02-18T04:07:25;30.30;;;14.47;;
6344;SDS011;3205;42.666;23.264;2023-02-18T04:09:52;32.40;;;14.07;;
6344;SDS011;3205;42.666;23.264;2023-02-18T04:12:19;29.33;;;13.90;;
6344;SDS011;3205;42.666;23.264;2023-02-18T04:14:45;30.83;;;14.13;;
6344;SDS011;3205;42.666;23.264;2023-02-18T04:17:11;35.50;;;14.43;;
6344;SDS011;3205;42.666;23.264;2023-02-18T04:19:39;35.47;;;14.30;;
6344;SDS011;3205;42.666;23.264;2023-02-18T04:22:05;35.17;;;14.30;;
6344;SDS011;3205;42.666;23.264;2023-02-18T04:24:31;26.47;;;13.93;;
6344;SDS011;3205;42.666;23.264;2023-02-18T04:26:58;41.47;;;14.80;;
6344;SDS011;3205;42.666;23.264;2023-02-18T04:29:24;32.90;;;14.83;;
6344;SDS011;3205;42.666;23.264;2023-02-18T04:31:51;29.80;;;13.93;;
6344;SDS011;3205;42.666;23.264;2023-02-18T04:34:18;36.60;;;15.87;;
6344;SDS011;3205;42.666;23.264;2023-02-18T04:36:44;35.90;;;15.63;;
6344;SDS011;3205;42.666;23.264;2023-02-18T04:39:10;29.70;;;14.50;;
6344;SDS011;3205;42.666;23.264;2023-02-18T04:41:36;36.07;;;15.47;;
6344;SDS011;3205;42.666;23.264;2023-02-18T04:44:02;31.30;;;13.63;;
6344;SDS011;3205;42.666;23.264;2023-02-18T04:46:29;29.97;;;15.40;;
6344;SDS011;3205;42.666;23.264;2023-02-18T04:48:56;34.93;;;13.57;;
6344;SDS011;3205;42.666;23.264;2023-02-18T04:51:22;34.70;;;14.43;;
6344;SDS011;3205;42.666;23.264;2023-02-18T04:53:48;28.47;;;13.90;;
6344;SDS011;3205;42.666;23.264;2023-02-18T04:56:14;31.37;;;13.00;;
6344;SDS011;3205;42.666;23.264;2023-02-18T04:58:40;30.63;;;12.63;;
6344;SDS011;3205;42.666;23.264;2023-02-18T05:01:06;27.00;;;13.10;;
6344;SDS011;3205;42.666;23.264;2023-02-18T05:03:33;25.97;;;12.70;;
6344;SDS011;3205;42.666;23.264;2023-02-18T05:05:59;29.40;;;13.43;;
6344;SDS011;3205;42.666;23.264;2023-02-18T05:08:26;33.63;;;15.00;;
6344;SDS011;3205;42.666;23.264;2023-02-18T05:10:52;30.23;;;13.80;;
6344;SDS011;3205;42.666;23.264;2023-02-18T05:13:18;39.43;;;16.17;;
6344;SDS011;3205;42.666;23.264;2023-02-18T05:15:44;42.40;;;16.73;;
6344;SDS011;3205;42.666;23.264;2023-02-18T05:18:11;31.13;;;13.90;;
6344;SDS011;3205;42.666;23.264;2023-02-18T05:20:38;44.80;;;15.70;;
6344;SDS011;3205;42.666;23.264;2023-02-18T05:23:06;31.23;;;14.83;;
6344;SDS011;3205;42.666;23.264;2023-02-18T05:25:32;33.90;;;14.60;;
6344;SDS011;3205;42.666;23.264;2023-02-18T05:27:59;39.63;;;14.97;;
6344;SDS011;3205;42.666;23.264;2023-02-18T05:30:25;37.77;;;14.00;;
6344;SDS011;3205;42.666;23.264;2023-02-18T05:32:52;38.97;;;15.30;;
6344;SDS011;3205;42.666;23.264;2023-02-18T05:35:18;29.97;;;14.50;;
6344;SDS011;3205;42.666;23.264;2023-02-18T05:37:44;39.73;;;14.67;;
6344;SDS011;3205;42.666;23.264;2023-02-18T05:40:12;35.60;;;15.20;;
6344;SDS011;3205;42.666;23.264;2023-02-18T05:42:38;33.93;;;16.00;;
6344;SDS011;3205;42.666;23.264;2023-02-18T05:45:05;34.67;;;15.60;;
6344;SDS011;3205;42.666;23.264;2023-02-18T05:47:31;37.93;;;14.97;;
6344;SDS011;3205;42.666;23.264;2023-02-18T05:49:57;34.87;;;15.57;;
6344;SDS011;3205;42.666;23.264;2023-02-18T05:52:23;41.50;;;15.23;;
6344;SDS011;3205;42.666;23.264;2023-02-18T05:54:50;44.07;;;14.90;;
6344;SDS011;3205;42.666;23.264;2023-02-18T05:57:16;40.40;;;15.87;;
6344;SDS011;3205;42.666;23.264;2023-02-18T05:59:42;30.87;;;14.67;;
6344;SDS011;3205;42.666;23.264;2023-02-18T06:02:09;27.03;;;12.63;;
6344;SDS011;3205;42.666;23.264;2023-02-18T06:04:35;31.80;;;14.27;;
6344;SDS011;3205;42.666;23.264;2023-02-18T06:07:01;28.33;;;12.93;;
6344;SDS011;3205;42.666;23.264;2023-02-18T06:09:28;31.23;;;14.83;;
6344;SDS011;3205;42.666;23.264;2023-02-18T06:11:54;26.53;;;13.73;;
6344;SDS011;3205;42.666;23.264;2023-02-18T06:14:21;30.70;;;14.00;;
6344;SDS011;3205;42.666;23.264;2023-02-18T06:16:47;38.93;;;15.20;;
6344;SDS011;3205;42.666;23.264;2023-02-18T06:19:13;30.37;;;14.00;;
6344;SDS011;3205;42.666;23.264;2023-02-18T06:21:39;47.17;;;15.73;;
6344;SDS011;3205;42.666;23.264;2023-02-18T06:24:05;35.87;;;14.13;;
6344;SDS011;3205;42.666;23.264;2023-02-18T06:26:32;41.63;;;16.43;;
6344;SDS011;3205;42.666;23.264;2023-02-18T06:29:00;34.87;;;14.13;;
6344;SDS011;3205;42.666;23.264;2023-02-18T06:31:26;35.17;;;14.30;;
6344;SDS011;3205;42.666;23.264;2023-02-18T06:33:53;29.60;;;13.97;;
6344;SDS011;3205;42.666;23.264;2023-02-18T06:36:19;29.40;;;14.80;;
6344;SDS011;3205;42.666;23.264;2023-02-18T06:38:46;37.70;;;14.37;;
6344;SDS011;3205;42.666;23.264;2023-02-18T06:41:12;46.07;;;15.00;;
6344;SDS011;3205;42.666;23.264;2023-02-18T06:43:39;29.80;;;13.73;;
6344;SDS011;3205;42.666;23.264;2023-02-18T06:46:05;35.67;;;14.93;;
6344;SDS011;3205;42.666;23.264;2023-02-18T06:48:33;37.87;;;16.40;;
6344;SDS011;3205;42.666;23.264;2023-02-18T06:50:59;36.47;;;16.30;;
6344;SDS011;3205;42.666;23.264;2023-02-18T06:53:25;30.07;;;14.00;;
6344;SDS011;3205;42.666;23.264;2023-02-18T06:55:51;48.33;;;15.57;;
6344;SDS011;3205;42.666;23.264;2023-02-18T06:58:19;44.67;;;14.43;;
6344;SDS011;3205;42.666;23.264;2023-02-18T07:00:45;35.70;;;13.77;;
6344;SDS011;3205;42.666;23.264;2023-02-18T07:03:14;41.40;;;14.20;;
6344;SDS011;3205;42.666;23.264;2023-02-18T07:05:41;52.93;;;19.67;;
6344;SDS011;3205;42.666;23.264;2023-02-18T07:08:07;55.80;;;22.07;;
6344;SDS011;3205;42.666;23.264;2023-02-18T07:10:34;49.73;;;19.43;;
6344;SDS011;3205;42.666;23.264;2023-02-18T07:13:00;40.83;;;15.60;;
6344;SDS011;3205;42.666;23.264;2023-02-18T07:15:26;32.77;;;14.47;;
6344;SDS011;3205;42.666;23.264;2023-02-18T07:17:52;38.93;;;17.23;;
6344;SDS011;3205;42.666;23.264;2023-02-18T07:20:20;32.40;;;14.63;;
6344;SDS011;3205;42.666;23.264;2023-02-18T07:22:47;40.23;;;16.13;;
6344;SDS011;3205;42.666;23.264;2023-02-18T07:25:14;65.30;;;25.80;;
6344;SDS011;3205;42.666;23.264;2023-02-18T07:27:40;52.57;;;19.90;;
6344;SDS011;3205;42.666;23.264;2023-02-18T07:30:06;47.80;;;16.73;;
6344;SDS011;3205;42.666;23.264;2023-02-18T07:32:34;47.90;;;15.40;;
6344;SDS011;3205;42.666;23.264;2023-02-18T07:35:00;31.27;;;13.17;;
6344;SDS011;3205;42.666;23.264;2023-02-18T07:37:27;33.30;;;15.73;;
6344;SDS011;3205;42.666;23.264;2023-02-18T07:39:55;39.53;;;16.20;;
6344;SDS011;3205;42.666;23.264;2023-02-18T07:42:21;31.83;;;13.23;;
6344;SDS011;3205;42.666;23.264;2023-02-18T07:44:47;32.40;;;12.60;;
6344;SDS011;3205;42.666;23.264;2023-02-18T07:47:16;24.20;;;11.67;;
6344;SDS011;3205;42.666;23.264;2023-02-18T07:49:43;37.27;;;15.10;;
6344;SDS011;3205;42.666;23.264;2023-02-18T07:52:10;33.47;;;12.53;;
6344;SDS011;3205;42.666;23.264;2023-02-18T07:54:37;26.23;;;11.57;;
6344;SDS011;3205;42.666;23.264;2023-02-18T07:57:03;37.77;;;18.23;;
6344;SDS011;3205;42.666;23.264;2023-02-18T07:59:30;31.97;;;12.80;;
6344;SDS011;3205;42.666;23.264;2023-02-18T08:01:56;37.50;;;12.40;;
6344;SDS011;3205;42.666;23.264;2023-02-18T08:04:22;26.50;;;11.83;;
6344;SDS011;3205;42.666;23.264;2023-02-18T08:06:48;26.63;;;11.30;;
6344;SDS011;3205;42.666;23.264;2023-02-18T08:09:16;28.20;;;12.73;;
6344;SDS011;3205;42.666;23.264;2023-02-18T08:11:43;22.17;;;11.77;;
6344;SDS011;3205;42.666;23.264;2023-02-18T08:14:10;30.07;;;11.70;;
6344;SDS011;3205;42.666;23.264;2023-02-18T08:16:36;27.70;;;11.77;;
6344;SDS011;3205;42.666;23.264;2023-02-18T08:19:02;24.73;;;12.33;;
6344;SDS011;3205;42.666;23.264;2023-02-18T08:21:28;24.67;;;11.73;;
6344;SDS011;3205;42.666;23.264;2023-02-18T08:23:57;35.60;;;12.93;;
6344;SDS011;3205;42.666;23.264;2023-02-18T08:26:24;25.37;;;11.63;;
6344;SDS011;3205;42.666;23.264;2023-02-18T08:28:51;26.67;;;12.60;;
6344;SDS011;3205;42.666;23.264;2023-02-18T08:31:17;28.67;;;12.70;;
6344;SDS011;3205;42.666;23.264;2023-02-18T08:33:45;24.40;;;12.07;;
6344;SDS011;3205;42.666;23.264;2023-02-18T08:36:11;28.50;;;12.07;;
6344;SDS011;3205;42.666;23.264;2023-02-18T08:38:38;25.63;;;11.53;;
6344;SDS011;3205;42.666;23.264;2023-02-18T08:41:05;28.37;;;10.80;;
6344;SDS011;3205;42.666;23.264;2023-02-18T08:43:33;35.43;;;12.10;;
6344;SDS011;3205;42.666;23.264;2023-02-18T08:46:00;26.23;;;12.10;;
6344;SDS011;3205;42.666;23.264;2023-02-18T08:48:27;41.27;;;14.23;;
6344;SDS011;3205;42.666;23.264;2023-02-18T08:50:54;29.07;;;12.17;;
6344;SDS011;3205;42.666;23.264;2023-02-18T08:53:21;29.57;;;11.80;;
6344;SDS011;3205;42.666;23.264;2023-02-18T08:55:47;33.50;;;11.43;;
6344;SDS011;3205;42.666;23.264;2023-02-18T08:58:15;29.90;;;12.73;;
6344;SDS011;3205;42.666;23.264;2023-02-18T09:00:41;23.17;;;10.73;;
6344;SDS011;3205;42.666;23.264;2023-02-18T09:03:10;23.43;;;12.67;;
6344;SDS011;3205;42.666;23.264;2023-02-18T09:05:37;31.83;;;13.20;;
6344;SDS011;3205;42.666;23.264;2023-02-18T09:08:04;33.03;;;13.47;;
6344;SDS011;3205;42.666;23.264;2023-02-18T09:10:30;37.20;;;14.87;;
6344;SDS011;3205;42.666;23.264;2023-02-18T09:12:56;37.37;;;16.17;;
6344;SDS011;3205;42.666;23.264;2023-02-18T09:15:23;28.77;;;14.37;;
6344;SDS011;3205;42.666;23.264;2023-02-18T09:17:49;44.23;;;14.17;;
6344;SDS011;3205;42.666;23.264;2023-02-18T09:20:16;30.73;;;13.83;;
6344;SDS011;3205;42.666;23.264;2023-02-18T09:22:43;33.63;;;14.07;;
6344;SDS011;3205;42.666;23.264;2023-02-18T09:25:10;24.83;;;13.37;;
6344;SDS011;3205;42.666;23.264;2023-02-18T09:27:36;26.43;;;12.50;;
6344;SDS011;3205;42.666;23.264;2023-02-18T09:30:03;27.67;;;12.47;;
6344;SDS011;3205;42.666;23.264;2023-02-18T09:32:30;33.53;;;12.77;;
6344;SDS011;3205;42.666;23.264;2023-02-18T09:34:57;28.40;;;11.87;;
6344;SDS011;3205;42.666;23.264;2023-02-18T09:37:24;29.43;;;12.23;;
6344;SDS011;3205;42.666;23.264;2023-02-18T09:39:51;27.17;;;11.73;;
6344;SDS011;3205;42.666;23.264;2023-02-18T09:42:17;24.23;;;12.13;;
6344;SDS011;3205;42.666;23.264;2023-02-18T09:44:51;21.73;;;10.57;;
6344;SDS011;3205;42.666;23.264;2023-02-18T09:47:20;31.13;;;12.13;;
6344;SDS011;3205;42.666;23.264;2023-02-18T09:49:55;28.50;;;11.63;;
6344;SDS011;3205;42.666;23.264;2023-02-18T09:52:27;24.63;;;12.40;;
6344;SDS011;3205;42.666;23.264;2023-02-18T09:54:55;27.30;;;12.50;;
6344;SDS011;3205;42.666;23.264;2023-02-18T09:57:22;41.77;;;14.00;;
6344;SDS011;3205;42.666;23.264;2023-02-18T09:59:51;34.70;;;13.90;;
6344;SDS011;3205;42.666;23.264;2023-02-18T10:02:23;30.00;;;12.77;;
6344;SDS011;3205;42.666;23.264;2023-02-18T10:04:50;33.43;;;13.30;;
6344;SDS011;3205;42.666;23.264;2023-02-18T10:07:19;25.00;;;13.20;;
6344;SDS011;3205;42.666;23.264;2023-02-18T10:09:50;35.40;;;13.97;;
6344;SDS011;3205;42.666;23.264;2023-02-18T10:12:19;30.93;;;13.33;;
6344;SDS011;3205;42.666;23.264;2023-02-18T10:14:48;28.63;;;13.20;;
6344;SDS011;3205;42.666;23.264;2023-02-18T10:17:16;27.87;;;13.20;;
6344;SDS011;3205;42.666;23.264;2023-02-18T10:19:45;31.90;;;12.43;;
6344;SDS011;3205;42.666;23.264;2023-02-18T10:22:14;24.53;;;11.70;;
6344;SDS011;3205;42.666;23.264;2023-02-18T10:24:43;30.50;;;12.40;;
6344;SDS011;3205;42.666;23.264;2023-02-18T10:27:16;25.07;;;12.87;;
6344;SDS011;3205;42.666;23.264;2023-02-18T10:29:49;28.00;;;12.60;;
6344;SDS011;3205;42.666;23.264;2023-02-18T10:32:18;23.27;;;12.53;;
6344;SDS011;3205;42.666;23.264;2023-02-18T10:34:50;32.57;;;13.57;;
6344;SDS011;3205;42.666;23.264;2023-02-18T10:37:26;30.27;;;14.13;;
6344;SDS011;3205;42.666;23.264;2023-02-18T10:40:07;40.00;;;16.90;;
6344;SDS011;3205;42.666;23.264;2023-02-18T10:42:42;27.23;;;11.53;;
6344;SDS011;3205;42.666;23.264;2023-02-18T10:45:20;19.20;;;10.13;;
6344;SDS011;3205;42.666;23.264;2023-02-18T10:47:57;21.57;;;11.60;;
6344;SDS011;3205;42.666;23.264;2023-02-18T10:50:36;26.47;;;11.57;;
6344;SDS011;3205;42.666;23.264;2023-02-18T10:53:08;23.60;;;9.27;;
6344;SDS011;3205;42.666;23.264;2023-02-18T10:55:38;18.43;;;9.43;;
6344;SDS011;3205;42.666;23.264;2023-02-18T10:58:22;27.57;;;9.33;;
6344;SDS011;3205;42.666;23.264;2023-02-18T11:00:51;28.67;;;9.98;;
6344;SDS011;3205;42.666;23.264;2023-02-18T11:03:20;17.67;;;9.70;;
6344;SDS011;3205;42.666;23.264;2023-02-18T11:05:49;15.87;;;8.60;;
6344;SDS011;3205;42.666;23.264;2023-02-18T11:08:19;18.60;;;7.83;;
6344;SDS011;3205;42.666;23.264;2023-02-18T11:10:48;16.17;;;4.73;;
6344;SDS011;3205;42.666;23.264;2023-02-18T11:13:22;9.17;;;3.03;;
6344;SDS011;3205;42.666;23.264;2023-02-18T11:15:53;10.80;;;3.03;;
6344;SDS011;3205;42.666;23.264;2023-02-18T11:18:35;9.97;;;3.13;;
6344;SDS011;3205;42.666;23.264;2023-02-18T11:21:04;5.97;;;3.07;;
6344;SDS011;3205;42.666;23.264;2023-02-18T11:23:44;12.02;;;6.28;;
6344;SDS011;3205;42.666;23.264;2023-02-18T11:26:13;11.52;;;3.55;;
6344;SDS011;3205;42.666;23.264;2023-02-18T11:28:43;9.15;;;4.00;;
6344;SDS011;3205;42.666;23.264;2023-02-18T11:31:15;6.65;;;3.28;;
6344;SDS011;3205;42.666;23.264;2023-02-18T11:33:48;7.90;;;3.40;;
6344;SDS011;3205;42.666;23.264;2023-02-18T11:36:18;6.85;;;3.13;;
6344;SDS011;3205;42.666;23.264;2023-02-18T11:38:49;4.97;;;2.42;;
6344;SDS011;3205;42.666;23.264;2023-02-18T11:41:19;7.55;;;3.42;;
6344;SDS011;3205;42.666;23.264;2023-02-18T11:43:48;4.97;;;2.15;;
6344;SDS011;3205;42.666;23.264;2023-02-18T11:46:18;5.80;;;2.30;;
6344;SDS011;3205;42.666;23.264;2023-02-18T11:48:46;5.90;;;2.63;;
6344;SDS011;3205;42.666;23.264;2023-02-18T11:51:14;3.45;;;2.40;;
6344;SDS011;3205;42.666;23.264;2023-02-18T11:53:52;4.80;;;2.88;;
6344;SDS011;3205;42.666;23.264;2023-02-18T11:56:23;5.97;;;2.33;;
6344;SDS011;3205;42.666;23.264;2023-02-18T11:58:51;5.32;;;2.55;;
6344;SDS011;3205;42.666;23.264;2023-02-18T12:01:20;7.03;;;2.58;;
6344;SDS011;3205;42.666;23.264;2023-02-18T12:03:55;2.45;;;2.15;;
6344;SDS011;3205;42.666;23.264;2023-02-18T12:06:27;3.47;;;2.45;;
6344;SDS011;3205;42.666;23.264;2023-02-18T12:08:59;4.05;;;2.63;;
6344;SDS011;3205;42.666;23.264;2023-02-18T12:11:30;6.38;;;3.25;;
6344;SDS011;3205;42.666;23.264;2023-02-18T12:14:07;7.28;;;3.00;;
6344;SDS011;3205;42.666;23.264;2023-02-18T12:16:42;5.18;;;2.95;;
6344;SDS011;3205;42.666;23.264;2023-02-18T12:22:11;5.85;;;2.88;;
6344;SDS011;3205;42.666;23.264;2023-02-18T12:24:48;4.70;;;3.45;;
6344;SDS011;3205;42.666;23.264;2023-02-18T12:27:29;6.40;;;3.47;;
6344;SDS011;3205;42.666;23.264;2023-02-18T12:30:20;7.43;;;3.00;;
6344;SDS011;3205;42.666;23.264;2023-02-18T12:32:59;16.83;;;3.47;;
6344;SDS011;3205;42.666;23.264;2023-02-18T12:35:42;7.10;;;3.08;;
6344;SDS011;3205;42.666;23.264;2023-02-18T12:38:28;11.55;;;5.82;;
6344;SDS011;3205;42.666;23.264;2023-02-18T12:41:23;21.85;;;8.90;;
6344;SDS011;3205;42.666;23.264;2023-02-18T12:44:13;14.40;;;8.27;;
6344;SDS011;3205;42.666;23.264;2023-02-18T12:46:57;15.18;;;7.50;;
6344;SDS011;3205;42.666;23.264;2023-02-18T12:49:41;14.20;;;7.18;;
6344;SDS011;3205;42.666;23.264;2023-02-18T12:52:28;29.33;;;13.45;;
6344;SDS011;3205;42.666;23.264;2023-02-18T12:55:15;24.42;;;12.45;;
6344;SDS011;3205;42.666;23.264;2023-02-18T12:57:51;10.90;;;5.47;;
6344;SDS011;3205;42.666;23.264;2023-02-18T13:06:37;9.30;;;5.28;;
6344;SDS011;3205;42.666;23.264;2023-02-18T13:09:15;7.47;;;3.90;;
6344;SDS011;3205;42.666;23.264;2023-02-18T13:11:53;5.67;;;3.67;;
6344;SDS011;3205;42.666;23.264;2023-02-18T13:14:29;7.70;;;4.93;;
6344;SDS011;3205;42.666;23.264;2023-02-18T13:16:58;6.90;;;4.40;;
6344;SDS011;3205;42.666;23.264;2023-02-18T13:19:29;15.00;;;6.73;;
6344;SDS011;3205;42.666;23.264;2023-02-18T13:22:00;6.45;;;3.60;;
6344;SDS011;3205;42.666;23.264;2023-02-18T13:24:30;6.57;;;4.32;;
6344;SDS011;3205;42.666;23.264;2023-02-18T13:27:02;7.35;;;3.33;;
6344;SDS011;3205;42.666;23.264;2023-02-18T13:29:41;12.27;;;3.90;;
6344;SDS011;3205;42.666;23.264;2023-02-18T13:32:14;9.83;;;5.23;;
6344;SDS011;3205;42.666;23.264;2023-02-18T13:34:52;7.57;;;3.83;;
6344;SDS011;3205;42.666;23.264;2023-02-18T13:37:27;8.23;;;3.78;;
6344;SDS011;3205;42.666;23.264;2023-02-18T13:39:59;7.22;;;3.60;;
6344;SDS011;3205;42.666;23.264;2023-02-18T13:42:32;5.27;;;3.40;;
6344;SDS011;3205;42.666;23.264;2023-02-18T13:47:50;10.03;;;4.50;;
6344;SDS011;3205;42.666;23.264;2023-02-18T13:50:30;9.07;;;4.30;;
6344;SDS011;3205;42.666;23.264;2023-02-18T13:53:18;10.53;;;3.80;;
6344;SDS011;3205;42.666;23.264;2023-02-18T13:58:36;12.23;;;4.30;;
6344;SDS011;3205;42.666;23.264;2023-02-18T14:01:12;12.13;;;5.15;;
6344;SDS011;3205;42.666;23.264;2023-02-18T14:03:52;8.97;;;3.60;;
6344;SDS011;3205;42.666;23.264;2023-02-18T14:06:25;12.80;;;4.55;;
6344;SDS011;3205;42.666;23.264;2023-02-18T14:12:14;9.90;;;4.85;;
6344;SDS011;3205;42.666;23.264;2023-02-18T14:14:42;7.53;;;4.83;;
6344;SDS011;3205;42.666;23.264;2023-02-18T14:22:56;10.77;;;4.50;;
6344;SDS011;3205;42.666;23.264;2023-02-18T14:25:30;10.37;;;4.70;;
6344;SDS011;3205;42.666;23.264;2023-02-18T14:28:02;6.13;;;4.30;;
6344;SDS011;3205;42.666;23.264;2023-02-18T14:30:49;8.60;;;4.60;;
6344;SDS011;3205;42.666;23.264;2023-02-18T14:33:17;8.80;;;4.80;;
6344;SDS011;3205;42.666;23.264;2023-02-18T14:35:45;11.50;;;5.20;;
6344;SDS011;3205;42.666;23.264;2023-02-18T14:38:20;13.77;;;5.20;;
6344;SDS011;3205;42.666;23.264;2023-02-18T14:41:06;11.97;;;4.63;;
6344;SDS011;3205;42.666;23.264;2023-02-18T14:43:49;9.27;;;4.67;;
6344;SDS011;3205;42.666;23.264;2023-02-18T14:46:32;9.60;;;4.17;;
6344;SDS011;3205;42.666;23.264;2023-02-18T14:49:13;11.30;;;4.57;;
6344;SDS011;3205;42.666;23.264;2023-02-18T14:51:50;23.07;;;6.10;;
6344;SDS011;3205;42.666;23.264;2023-02-18T14:54:18;14.83;;;5.53;;
6344;SDS011;3205;42.666;23.264;2023-02-18T14:56:51;10.10;;;5.13;;
6344;SDS011;3205;42.666;23.264;2023-02-18T14:59:23;8.40;;;4.83;;
6344;SDS011;3205;42.666;23.264;2023-02-18T15:01:53;10.43;;;5.00;;
6344;SDS011;3205;42.666;23.264;2023-02-18T15:04:20;7.93;;;5.10;;
6344;SDS011;3205;42.666;23.264;2023-02-18T15:06:46;12.17;;;5.13;;
6344;SDS011;3205;42.666;23.264;2023-02-18T15:09:23;11.47;;;5.67;;
6344;SDS011;3205;42.666;23.264;2023-02-18T15:11:50;15.73;;;5.33;;
6344;SDS011;3205;42.666;23.264;2023-02-18T15:14:24;13.57;;;6.33;;
6344;SDS011;3205;42.666;23.264;2023-02-18T15:16:53;11.07;;;5.50;;
6344;SDS011;3205;42.666;23.264;2023-02-18T15:19:20;10.77;;;5.57;;
6344;SDS011;3205;42.666;23.264;2023-02-18T15:21:52;13.23;;;5.80;;
6344;SDS011;3205;42.666;23.264;2023-02-18T15:24:23;11.77;;;5.37;;
6344;SDS011;3205;42.666;23.264;2023-02-18T15:26:51;11.50;;;5.43;;